KBIH/BIH METAR and TAF weather

Enter ICAO airport designator
Station Type Date Time Source
KBIH METAR 2022/01/26 07:56 UTC NOAA

KBIH 260756Z AUTO 27007KT 10SM CLR M03/M13 A3022 RMK AO2 SLP228 T10281128 401391033


Station Type Date Time Source
KBIH Decoded METAR 2022/01/26 07:56 UTC NOAA

BISHOP AIRPORT, CA, United States (KBIH) 37-22N 118-22W 1253M
Jan 26, 2022 - 02:56 AM EST / 2022.01.26 0756 UTC
Wind: from the W (270 degrees) at 8 MPH (7 KT):0
Visibility: 10 mile(s):0
Sky conditions: clear
Temperature: 27.0 F (-2.8 C)
Windchill: 19 F (-7 C):1
Dew Point: 9.0 F (-12.8 C)
Relative Humidity: 46%
Pressure (altimeter): 30.22 in. Hg (1023 hPa)
ob: KBIH 260756Z AUTO 27007KT 10SM CLR M03/M13 A3022 RMK AO2 SLP228 T10281128 401391033
cycle: 8

Station Type Date Time Source
KBIH TAF 2022/01/26 06:40 UTC NOAA

TAF KBIH 260538Z 2606/2706 29007KT P6SM SKC
FM261800 VRB04KT P6SM SKC
FM270300 33007KT P6SM SKC

Example: see airport list